Latest Weather Observations for Tamworth Airport

IDN60801

Issued at 9:02 pm EST Monday 6 July 2015 (issued every 30 minutes, with the page automatically refreshed every 10 minutes)

About weather observations | Map of weather stations | Latest weather observations for NSW | Other Formats
Station Details ID: 055325 Name: TAMWORTH AIRPORT AWS Lat: -31.07 Lon: 150.84 Height: 394.9 m
Data from the previous 72 hours. | See also: Recent months at Tamworth Airport
Date/Time
EST
Temp
°C
App
Temp
°C
Dew
Point
Rel
Hum
%
Delta-T
°C
Wind Press
QNH
hPa
Press
MSL
hPa
Rain
since 9 am
mm
Dir
 
Spd
km/h
Gust
km/h
Spd
kts
Gust
kts
06/09:00pm 5.4 2.1 0.2 69 2.0 NNW 7 11 4 6 1019.3 1019.7 0.0
06/08:30pm 5.5 2.2 0.1 68 2.1 WNW 7 9 4 5 1019.0 1019.4 0.0
06/08:00pm 6.5 2.6 1.2 69 2.2 WNW 11 17 6 9 1018.7 1019.0 0.0
06/07:30pm 6.3 1.8 2.4 76 1.6 NW 15 17 8 9 1018.5 1018.8 0.0
06/07:00pm 6.4 2.2 1.5 71 2.0 NW 13 15 7 8 1018.0 1018.4 0.0
06/06:30pm 7.6 3.2 2.7 71 2.1 NW 15 15 8 8 1017.6 1018.0 0.0
06/06:00pm 8.1 4.1 3.0 70 2.2 NW 13 15 7 8 1017.2 1017.6 0.0
06/05:30pm 9.1 5.1 3.1 66 2.6 NW 13 17 7 9 1017.0 1017.4 0.0
06/05:00pm 10.9 7.0 3.5 60 3.3 NW 13 15 7 8 1016.7 1017.0 0.0
06/04:30pm 12.5 7.2 3.2 53 4.2 NW 20 24 11 13 1016.8 1017.1 0.0
06/04:00pm 14.4 9.6 4.4 51 4.7 WNW 19 24 10 13 1016.7 1017.0 0.0
06/03:30pm 14.8 10.0 4.8 51 4.8 WNW 19 24 10 13 1016.3 1016.6 0.0
06/03:00pm 14.8 9.9 4.2 49 5.0 WNW 19 30 10 16 1016.5 1016.8 0.0
06/02:30pm 14.9 9.6 3.1 45 5.4 WNW 20 32 11 17 1016.4 1016.7 0.0
06/02:00pm 14.9 8.5 3.1 45 5.4 NW 26 35 14 19 1016.6 1016.9 0.0
06/01:30pm 15.0 8.6 5.2 52 4.7 NW 28 39 15 21 1016.7 1017.0 0.0
06/01:00pm 15.0 9.0 5.2 52 4.7 WNW 26 33 14 18 1017.2 1017.6 0.0
06/12:30pm 14.9 9.4 6.0 55 4.4 WNW 24 32 13 17 1017.6 1018.0 0.0
06/12:00pm 14.2 9.6 5.8 57 4.1 WNW 19 32 10 17 1018.0 1018.4 0.0
06/11:30am 13.2 9.4 5.9 61 3.5 NNW 15 22 8 12 1018.7 1019.0 0.0
06/11:00am 11.1 8.4 5.8 70 2.5 NW 9 11 5 6 1019.2 1019.6 0.0
06/10:30am 9.7 7.4 5.9 77 1.8 WNW 7 9 4 5 1019.6 1020.0 0.0
06/10:00am 8.3 7.2 5.2 81 1.4 CALM 0 0 0 0 1019.7 1020.1 0.0
06/09:30am 6.6 4.3 4.8 88 0.8 ESE 6 9 3 5 1019.9 1020.3 0.0
06/09:00am 5.3 4.0 4.1 92 0.5 CALM 0 0 0 0 1019.9 1020.3 0.0
06/08:30am 3.5 1.9 2.3 92 0.5 CALM 0 0 0 0 1020.0 1020.4 0.0
06/08:00am 2.2 0.0 1.0 92 0.5 NW 2 9 1 5 1019.9 1020.3 0.0
06/07:30am 2.0 -1.0 0.8 92 0.5 E 6 9 3 5 1019.7 1020.1 0.0
06/07:00am 1.5 -1.8 0.3 92 0.5 SE 7 9 4 5 1019.5 1019.9 0.0
06/06:30am 0.3 -3.1 -0.8 92 0.4 S 7 9 4 5 1019.3 1019.7 0.0
06/06:28am 0.4 -3.0 -0.7 92 0.4 S 7 9 4 5 1019.3 1019.7 0.0
06/06:10am 0.4 -2.9 -0.9 91 0.5 SSW 6 7 3 4 1019.0 1019.4 0.0
06/06:00am 0.7 -1.3 -0.4 92 0.4 CALM 0 6 0 3 1019.1 1019.5 0.0
06/05:33am 1.3 -2.0 0.1 92 0.5 SSE 7 7 4 4 1019.0 1019.4 0.0
06/05:30am 1.3 -2.0 0.3 93 0.4 S 7 9 4 5 1019.0 1019.4 0.0
06/05:00am 0.1 -2.1 -1.2 91 0.5 CALM 0 0 0 0 1019.0 1019.4 0.0
06/04:50am 0.1 -2.4 -1.2 91 0.5 ESE 2 6 1 3 1019.0 1019.4 0.0
06/04:30am 0.8 -2.6 -0.5 91 0.5 ESE 7 9 4 5 1019.0 1019.4 0.0
06/04:00am 1.8 -1.4 0.6 92 0.5 SSE 7 9 4 5 1019.3 1019.7 0.0
06/03:55am 1.7 -1.5 0.5 92 0.5 SSE 7 7 4 4 1019.4 1019.8 0.0
06/03:30am 0.7 -2.7 -0.4 92 0.4 WSW 7 9 4 5 1019.6 1020.0 0.0
06/03:21am 0.5 -2.9 -0.8 91 0.5 SSW 7 7 4 4 1019.6 1020.0 0.0
06/03:00am 1.1 -2.3 -0.5 89 0.6 SSE 7 11 4 6 1019.6 1020.0 0.0
06/02:30am 2.4 -0.7 1.2 92 0.5 SSE 7 9 4 5 1019.8 1020.2 0.0
06/02:13am 1.8 -1.8 0.5 91 0.5 SSE 9 11 5 6 1020.0 1020.4 0.0
06/02:00am 1.4 -1.7 0.1 91 0.5 SE 6 7 3 4 1020.0 1020.4 0.0
06/01:42am 1.0 -2.4 -0.9 87 0.7 SE 7 9 4 5 1020.1 1020.5 0.0
06/01:30am 2.0 -1.7 0.2 88 0.7 SE 9 11 5 6 1020.1 1020.5 0.0
06/01:00am 2.3 -0.9 0.7 89 0.6 ESE 7 9 4 5 1020.1 1020.5 0.0
06/12:30am 2.7 -0.5 0.9 88 0.7 E 7 7 4 4 1020.2 1020.6 0.0
06/12:00am 3.1 0.3 1.8 91 0.5 S 6 7 3 4 1020.3 1020.7 0.0
 
Date/Time
EST
Temp
°C
App
Temp
°C
Dew
Point
Rel
Hum
%
Delta-T
°C
Wind Press
QNH
hPa
Press
MSL
hPa
Rain
since 9 am
mm
Dir
 
Spd
km/h
Gust
km/h
Spd
kts
Gust
kts
05/11:30pm 2.9 -0.2 1.6 91 0.5 SW 7 7 4 4 1020.2 1020.6 0.0
05/11:00pm 2.9 -0.1 1.1 88 0.7 SSW 6 7 3 4 1020.2 1020.6 0.0
05/10:30pm 4.0 1.1 2.4 89 0.7 SSE 7 7 4 4 1020.3 1020.7 0.0
05/10:00pm 3.7 0.7 1.1 83 1.0 S 6 7 3 4 1020.5 1020.9 0.0
05/09:30pm 5.0 1.7 2.7 85 1.0 SSE 9 11 5 6 1020.6 1021.0 0.0
05/09:00pm 6.2 4.8 3.4 82 1.2 CALM 0 0 0 0 1020.6 1021.0 0.0
05/08:30pm 6.6 5.2 3.6 81 1.3 CALM 0 0 0 0 1020.6 1021.0 0.0
05/08:00pm 7.4 5.4 4.4 81 1.3 ENE 4 6 2 3 1020.9 1021.2 0.0
05/07:30pm 7.9 5.5 4.3 78 1.6 ENE 6 7 3 4 1020.9 1021.2 0.0
05/07:00pm 8.3 5.6 3.9 74 1.9 E 7 9 4 5 1020.9 1021.2 0.0
05/06:30pm 9.4 6.9 4.0 69 2.4 SW 6 7 3 4 1020.8 1021.1 0.0
05/06:00pm 10.1 7.6 4.7 69 2.5 SW 7 11 4 6 1020.6 1021.0 0.0
05/05:30pm 10.8 8.2 4.0 63 3.1 SW 7 9 4 5 1020.2 1020.6 0.0
05/05:00pm 13.1 10.7 4.3 55 4.1 WSW 6 7 3 4 1020.0 1020.4 0.0
05/04:30pm 14.8 11.5 4.5 50 4.9 W 11 15 6 8 1020.1 1020.5 0.0
05/04:00pm 15.5 11.8 4.5 48 5.2 WNW 13 19 7 10 1020.3 1020.7 0.0
05/03:30pm 15.9 12.1 4.0 45 5.6 NW 13 17 7 9 1020.2 1020.6 0.0
05/03:00pm 16.2 12.2 4.9 47 5.4 WNW 15 19 8 10 1020.1 1020.5 0.0
05/02:30pm 16.0 11.0 3.8 44 5.8 WNW 19 26 10 14 1020.2 1020.6 0.0
05/02:00pm 15.8 10.6 2.6 41 6.0 WNW 19 28 10 15 1020.4 1020.8 0.0
05/01:30pm 15.5 10.6 4.2 47 5.4 NW 19 26 10 14 1020.8 1021.1 0.0
05/01:00pm 15.5 11.5 4.8 49 5.1 NNW 15 24 8 13 1021.2 1021.6 0.0
05/12:30pm 15.0 11.4 5.2 52 4.7 NNW 13 19 7 10 1021.6 1022.0 0.0
05/12:00pm 14.3 11.4 4.9 53 4.5 NW 9 13 5 7 1022.1 1022.5 0.0
05/11:30am 13.7 10.8 4.8 55 4.2 NNW 9 13 5 7 1022.4 1022.8 0.0
05/11:00am 13.5 11.4 5.7 59 3.7 NW 6 9 3 5 1022.8 1023.2 0.0
05/10:30am 12.0 9.9 5.6 65 3.0 ENE 6 9 3 5 1023.2 1023.6 0.0
05/10:00am 9.8 7.5 4.8 71 2.3 ESE 6 9 3 5 1023.1 1023.5 0.0
05/09:30am 8.3 6.2 3.9 74 2.0 E 4 7 2 4 1023.2 1023.6 0.0
05/09:00am 7.5 5.1 4.1 79 1.5 SE 6 7 3 4 1023.1 1023.5 0.0
05/08:30am 6.4 3.3 3.7 83 1.2 SE 9 11 5 6 1022.9 1023.3 0.0
05/08:00am 4.7 3.2 3.2 90 0.6 CALM 0 6 0 3 1022.9 1023.3 0.0
05/07:30am 3.6 0.8 2.0 89 0.6 SSE 6 9 3 5 1022.9 1023.3 0.0
05/07:00am 2.5 -0.1 0.7 88 0.7 SE 4 9 2 5 1022.8 1023.2 0.0
05/06:30am 3.1 -1.2 1.3 88 0.7 SE 13 15 7 8 1022.5 1022.9 0.0
05/06:00am 3.3 -0.9 1.7 89 0.6 SSE 13 17 7 9 1022.3 1022.7 0.0
05/05:30am 2.1 -1.1 0.5 89 0.6 WSW 7 9 4 5 1022.1 1022.5 0.0
05/05:00am 2.7 -0.8 1.1 89 0.6 SW 9 13 5 7 1021.9 1022.3 0.0
05/04:30am 3.7 0.8 1.4 85 0.9 SE 6 9 3 5 1021.8 1022.2 0.0
05/04:00am 4.3 1.5 2.2 86 0.9 ESE 6 7 3 4 1022.1 1022.5 0.0
05/03:30am 4.5 1.5 2.2 85 0.9 SE 7 9 4 5 1022.3 1022.7 0.0
05/03:00am 4.3 0.6 2.3 87 0.8 ESE 11 13 6 7 1022.3 1022.7 0.0
05/02:30am 3.8 2.1 1.8 87 0.8 CALM 0 4 0 2 1022.5 1022.9 0.0
05/02:00am 3.8 0.7 1.5 85 0.9 SSE 7 9 4 5 1022.6 1023.0 0.0
05/01:30am 4.4 1.4 2.1 85 0.9 SE 7 9 4 5 1022.4 1022.8 0.0
05/01:00am 4.8 3.2 2.5 85 0.9 CALM 0 0 0 0 1022.5 1022.9 -
05/12:30am 5.2 3.6 2.7 84 1.0 CALM 0 0 0 0 1022.5 1022.9 0.0
05/12:00am 5.1 3.5 2.6 84 1.0 CALM 0 0 0 0 1022.4 1022.8 0.0
 
Date/Time
EST
Temp
°C
App
Temp
°C
Dew
Point
Rel
Hum
%
Delta-T
°C
Wind Press
QNH
hPa
Press
MSL
hPa
Rain
since 9 am
mm
Dir
 
Spd
km/h
Gust
km/h
Spd
kts
Gust
kts
04/11:30pm 5.7 3.4 3.0 83 1.1 SSE 4 7 2 4 1022.5 1022.9 0.0
04/11:00pm 6.3 3.5 3.1 80 1.4 SE 7 9 4 5 1022.6 1023.0 0.0
04/10:30pm 6.3 3.5 3.1 80 1.4 SE 7 9 4 5 1022.5 1022.9 0.0
04/10:00pm 6.6 4.0 3.4 80 1.4 S 6 7 3 4 1022.6 1023.0 0.0
04/09:30pm 6.1 3.3 2.9 80 1.4 SW 7 11 4 6 1022.5 1022.9 0.0
04/09:00pm 7.3 4.7 3.4 76 1.7 SSE 6 7 3 4 1022.5 1022.9 0.0
04/08:30pm 8.0 6.7 4.0 76 1.8 CALM 0 0 0 0 1022.5 1022.9 0.0
04/08:00pm 7.2 5.8 3.4 77 1.6 CALM 0 0 0 0 1022.6 1023.0 0.0
04/07:30pm 7.3 5.8 3.0 74 1.9 CALM 0 0 0 0 1022.6 1023.0 0.0
04/07:00pm 9.1 6.4 3.5 68 2.5 ESE 7 11 4 6 1022.6 1023.0 0.0
04/06:30pm 8.3 4.8 3.6 72 2.1 ESE 11 13 6 7 1022.4 1022.8 0.0
04/06:00pm 8.7 5.4 2.7 66 2.6 S 9 9 5 5 1022.2 1022.6 0.0
04/05:30pm 9.3 6.2 3.5 67 2.6 SSW 9 11 5 6 1022.1 1022.5 0.0
04/05:00pm 10.2 7.0 3.3 62 3.1 SW 9 11 5 6 1022.2 1022.6 0.0
04/04:30pm 11.8 8.3 3.3 56 3.8 WSW 11 15 6 8 1022.1 1022.5 0.0
04/04:00pm 12.9 9.3 3.0 51 4.5 W 11 15 6 8 1022.1 1022.5 0.0
04/03:30pm 15.0 9.6 2.2 42 5.8 W 20 26 11 14 1022.0 1022.4 0.0
04/03:00pm 14.1 9.0 3.0 47 5.1 WNW 19 22 10 12 1022.0 1022.4 0.0
04/02:30pm 15.6 10.6 3.4 44 5.7 WNW 19 24 10 13 1022.1 1022.5 0.0
04/02:00pm 14.8 9.1 3.0 45 5.4 NW 22 32 12 17 1022.2 1022.6 0.0
04/01:30pm 15.6 9.5 2.7 42 5.9 NW 24 33 13 18 1022.4 1022.8 0.0
04/01:00pm 14.7 9.6 3.2 46 5.3 NW 19 24 10 13 1022.9 1023.3 0.0
04/12:30pm 14.3 10.3 2.9 46 5.2 NNW 13 22 7 12 1023.5 1023.9 0.0
04/12:00pm 14.2 11.2 3.9 50 4.8 NNW 9 17 5 9 1024.0 1024.4 0.0
04/11:30am 13.2 9.8 4.1 54 4.2 NNW 11 17 6 9 1024.7 1025.1 0.0
04/11:00am 11.5 9.9 4.3 61 3.3 NNE 2 11 1 6 1025.1 1025.5 0.0
04/10:30am 11.7 9.8 5.1 64 3.1 SE 4 9 2 5 1025.3 1025.7 0.0
04/10:00am 8.8 6.8 4.4 74 2.0 SW 4 9 2 5 1025.3 1025.7 0.0
04/09:30am 7.2 5.5 4.2 81 1.3 SW 2 9 1 5 1025.3 1025.7 0.0
04/09:00am 6.4 3.9 3.7 83 1.2 E 6 9 3 5 1025.1 1025.5 0.0
04/08:30am 4.8 2.3 3.6 92 0.5 SE 6 9 3 5 1025.0 1025.4 0.0
04/08:00am 1.0 -1.0 -0.1 92 0.4 CALM 0 0 0 0 1025.2 1025.6 0.0
04/07:57am 0.6 -1.5 -0.5 92 0.4 CALM 0 0 0 0 1025.1 1025.5 0.0
04/07:30am -1.0 -3.3 -2.3 91 0.4 CALM 0 0 0 0 1024.8 1025.2 0.0
04/07:08am 0.0 -2.1 -1.0 93 0.4 CALM 0 0 0 0 1024.8 1025.2 0.0
04/07:00am 0.0 -2.1 -1.0 93 0.4 CALM 0 0 0 0 1024.7 1025.1 0.0
04/06:30am -1.5 -4.3 -2.9 90 0.4 SE 2 6 1 3 1024.5 1024.9 0.0
04/06:00am -0.7 -4.3 -1.8 92 0.4 S 7 9 4 5 1024.3 1024.7 0.0
04/05:49am -0.5 -4.4 -1.6 92 0.4 SW 9 11 5 6 1024.3 1024.7 0.0
04/05:30am -0.9 -4.3 -2.2 91 0.4 SE 6 7 3 4 1024.2 1024.6 0.0
04/05:28am -0.7 -4.1 -2.0 91 0.4 SE 6 7 3 4 1024.2 1024.6 0.0
04/05:25am -0.5 -3.9 -1.8 91 0.4 ESE 6 7 3 4 1024.1 1024.5 0.0
04/05:00am 0.4 -3.0 -0.6 93 0.4 ESE 7 9 4 5 1024.0 1024.4 0.0
04/04:30am 0.2 -1.9 -0.9 92 0.4 CALM 0 0 0 0 1024.2 1024.6 0.0
04/04:19am -0.4 -2.6 -1.7 91 0.4 CALM 0 0 0 0 1024.0 1024.4 0.0
04/04:00am -0.6 -2.9 -2.2 89 0.5 CALM 0 0 0 0 1024.0 1024.4 0.0
04/03:30am 0.1 -2.1 -1.5 89 0.6 CALM 0 0 0 0 1023.7 1024.1 0.0
04/03:00am 1.0 -2.3 -0.1 92 0.4 S 7 9 4 5 1023.7 1024.1 0.0
04/02:30am 0.2 -3.7 -1.2 90 0.5 SSW 9 11 5 6 1023.9 1024.3 0.0
04/02:02am 1.0 -2.4 -0.3 91 0.5 S 7 11 4 6 1023.9 1024.3 0.0
04/02:00am 1.1 -2.6 -0.2 91 0.5 S 9 11 5 6 1024.0 1024.4 0.0
04/01:36am 1.1 -2.1 -0.7 88 0.7 SE 6 7 3 4 1024.3 1024.7 0.0
04/01:30am 1.6 -1.7 -0.2 88 0.7 SE 7 9 4 5 1024.4 1024.8 0.0
04/01:00am 2.6 -0.5 1.3 91 0.5 E 7 9 4 5 1024.7 1025.1 0.0
04/12:30am 1.9 -2.2 0.1 88 0.7 SSE 11 11 6 6 1025.0 1025.4 0.0
04/12:00am 2.3 -0.7 0.8 90 0.6 W 6 7 3 4 1025.1 1025.5 0.0
 
Date/Time
EST
Temp
°C
App
Temp
°C
Dew
Point
Rel
Hum
%
Delta-T
°C
Wind Press
QNH
hPa
Press
MSL
hPa
Rain
since 9 am
mm
Dir
 
Spd
km/h
Gust
km/h
Spd
kts
Gust
kts
03/11:30pm 3.0 -0.1 1.5 90 0.6 NNE 7 7 4 4 1025.1 1025.5 0.0
03/11:00pm 2.6 -1.4 0.2 84 0.9 ENE 11 13 6 7 1025.1 1025.5 0.0
03/10:30pm 5.0 0.5 2.4 83 1.1 SSE 15 15 8 8 1025.0 1025.4 0.0
03/10:00pm 5.5 0.8 3.0 84 1.1 SSE 17 19 9 10 1024.9 1025.3 0.0
03/09:30pm 5.4 2.7 2.6 82 1.2 SSE 6 9 3 5 1024.6 1025.0 0.0

Other Formats:

Comma delimited format used in spreadsheet applications
http://www.bom.gov.au/fwo/IDN60801/IDN60801.95762.axf

JavaScript Object Notation format (JSON) in row-major order
http://www.bom.gov.au/fwo/IDN60801/IDN60801.95762.json